sensor_id;sensor_type;location;lat;lon;timestamp;P1;durP1;ratioP1;P2;durP2;ratioP2
23336;SDS011;11840;45.414;12.372;2024-03-08T07:38:06;7.72;;;4.28;;
23336;SDS011;11840;45.414;12.372;2024-03-08T07:40:36;6.53;;;4.25;;
23336;SDS011;11840;45.414;12.372;2024-03-08T07:43:09;6.85;;;4.30;;
23336;SDS011;11840;45.414;12.372;2024-03-08T07:45:36;7.28;;;4.50;;
23336;SDS011;11840;45.414;12.372;2024-03-08T07:48:02;5.63;;;3.95;;
23336;SDS011;11840;45.414;12.372;2024-03-08T07:50:28;7.63;;;4.40;;
23336;SDS011;11840;45.414;12.372;2024-03-08T07:52:54;6.63;;;4.70;;
23336;SDS011;11840;45.414;12.372;2024-03-08T07:55:20;5.50;;;4.30;;
23336;SDS011;11840;45.414;12.372;2024-03-08T07:57:49;5.93;;;4.38;;
23336;SDS011;11840;45.414;12.372;2024-03-08T08:00:15;7.35;;;4.38;;
23336;SDS011;11840;45.414;12.372;2024-03-08T08:02:44;9.82;;;5.25;;
23336;SDS011;11840;45.414;12.372;2024-03-08T08:05:11;6.80;;;4.65;;
23336;SDS011;11840;45.414;12.372;2024-03-08T08:07:37;8.50;;;4.80;;
23336;SDS011;11840;45.414;12.372;2024-03-08T08:10:03;6.88;;;4.95;;
23336;SDS011;11840;45.414;12.372;2024-03-08T08:12:31;7.78;;;4.95;;
23336;SDS011;11840;45.414;12.372;2024-03-08T08:15:00;8.25;;;5.05;;
23336;SDS011;11840;45.414;12.372;2024-03-08T08:17:25;10.75;;;5.00;;
23336;SDS011;11840;45.414;12.372;2024-03-08T08:19:52;8.93;;;5.43;;
23336;SDS011;11840;45.414;12.372;2024-03-08T08:22:18;9.38;;;5.43;;
23336;SDS011;11840;45.414;12.372;2024-03-08T08:24:44;8.05;;;5.85;;
23336;SDS011;11840;45.414;12.372;2024-03-08T08:27:10;8.40;;;5.50;;
23336;SDS011;11840;45.414;12.372;2024-03-08T08:29:37;8.95;;;5.63;;
23336;SDS011;11840;45.414;12.372;2024-03-08T08:32:03;7.63;;;5.57;;
23336;SDS011;11840;45.414;12.372;2024-03-08T08:34:30;7.15;;;5.43;;
23336;SDS011;11840;45.414;12.372;2024-03-08T08:36:57;8.15;;;5.78;;
23336;SDS011;11840;45.414;12.372;2024-03-08T08:39:23;8.68;;;5.53;;
23336;SDS011;11840;45.414;12.372;2024-03-08T08:41:51;8.55;;;5.93;;
23336;SDS011;11840;45.414;12.372;2024-03-08T08:44:17;10.23;;;6.20;;
23336;SDS011;11840;45.414;12.372;2024-03-08T08:46:43;10.63;;;6.03;;
23336;SDS011;11840;45.414;12.372;2024-03-08T08:49:09;10.52;;;6.68;;
23336;SDS011;11840;45.414;12.372;2024-03-08T08:51:40;10.48;;;6.30;;
23336;SDS011;11840;45.414;12.372;2024-03-08T08:54:05;10.10;;;6.18;;
23336;SDS011;11840;45.414;12.372;2024-03-08T08:56:35;9.07;;;6.22;;
23336;SDS011;11840;45.414;12.372;2024-03-08T08:59:01;9.27;;;6.43;;
23336;SDS011;11840;45.414;12.372;2024-03-08T09:01:27;10.43;;;6.28;;
23336;SDS011;11840;45.414;12.372;2024-03-08T09:03:54;10.32;;;6.80;;
23336;SDS011;11840;45.414;12.372;2024-03-08T09:06:20;12.57;;;7.43;;
23336;SDS011;11840;45.414;12.372;2024-03-08T09:08:45;9.73;;;6.88;;
23336;SDS011;11840;45.414;12.372;2024-03-08T09:11:11;9.90;;;6.88;;
23336;SDS011;11840;45.414;12.372;2024-03-08T09:13:37;22.80;;;7.82;;
23336;SDS011;11840;45.414;12.372;2024-03-08T09:16:03;12.10;;;7.45;;
23336;SDS011;11840;45.414;12.372;2024-03-08T09:18:32;13.13;;;7.45;;
23336;SDS011;11840;45.414;12.372;2024-03-08T09:20:59;12.18;;;7.13;;
23336;SDS011;11840;45.414;12.372;2024-03-08T09:23:25;10.13;;;7.43;;
23336;SDS011;11840;45.414;12.372;2024-03-08T09:25:55;11.32;;;7.15;;
23336;SDS011;11840;45.414;12.372;2024-03-08T09:28:21;11.68;;;7.07;;
23336;SDS011;11840;45.414;12.372;2024-03-08T09:30:47;12.52;;;8.15;;
23336;SDS011;11840;45.414;12.372;2024-03-08T09:33:13;11.63;;;7.43;;
23336;SDS011;11840;45.414;12.372;2024-03-08T09:35:43;10.75;;;7.13;;
23336;SDS011;11840;45.414;12.372;2024-03-08T09:38:09;10.52;;;6.90;;
23336;SDS011;11840;45.414;12.372;2024-03-08T09:40:41;10.60;;;7.07;;
23336;SDS011;11840;45.414;12.372;2024-03-08T09:43:07;12.70;;;7.53;;
23336;SDS011;11840;45.414;12.372;2024-03-08T09:45:36;10.75;;;7.18;;
23336;SDS011;11840;45.414;12.372;2024-03-08T09:48:05;10.05;;;7.43;;
23336;SDS011;11840;45.414;12.372;2024-03-08T09:50:31;11.95;;;6.75;;
23336;SDS011;11840;45.414;12.372;2024-03-08T09:52:58;10.63;;;7.00;;
23336;SDS011;11840;45.414;12.372;2024-03-08T09:55:24;11.55;;;7.60;;
23336;SDS011;11840;45.414;12.372;2024-03-08T09:57:51;13.27;;;7.35;;
23336;SDS011;11840;45.414;12.372;2024-03-08T10:03:01;11.52;;;6.63;;
23336;SDS011;11840;45.414;12.372;2024-03-08T10:05:27;11.38;;;7.07;;
23336;SDS011;11840;45.414;12.372;2024-03-08T10:07:53;10.57;;;7.32;;
23336;SDS011;11840;45.414;12.372;2024-03-08T10:10:19;11.43;;;7.72;;
23336;SDS011;11840;45.414;12.372;2024-03-08T10:12:45;9.25;;;6.95;;
23336;SDS011;11840;45.414;12.372;2024-03-08T10:15:12;10.88;;;7.60;;
23336;SDS011;11840;45.414;12.372;2024-03-08T10:17:42;9.63;;;6.68;;
23336;SDS011;11840;45.414;12.372;2024-03-08T10:20:17;10.90;;;7.10;;
23336;SDS011;11840;45.414;12.372;2024-03-08T10:22:43;9.73;;;6.78;;
23336;SDS011;11840;45.414;12.372;2024-03-08T10:25:12;10.52;;;6.97;;
23336;SDS011;11840;45.414;12.372;2024-03-08T10:27:39;10.02;;;6.68;;
23336;SDS011;11840;45.414;12.372;2024-03-08T10:30:15;8.77;;;6.90;;
23336;SDS011;11840;45.414;12.372;2024-03-08T10:33:02;10.77;;;6.93;;
23336;SDS011;11840;45.414;12.372;2024-03-08T10:35:30;11.07;;;7.10;;
23336;SDS011;11840;45.414;12.372;2024-03-08T10:37:57;12.38;;;7.53;;
23336;SDS011;11840;45.414;12.372;2024-03-08T10:40:26;10.18;;;6.80;;
23336;SDS011;11840;45.414;12.372;2024-03-08T10:42:53;11.20;;;7.03;;
23336;SDS011;11840;45.414;12.372;2024-03-08T10:48:03;12.40;;;8.27;;
23336;SDS011;11840;45.414;12.372;2024-03-08T10:50:30;6.82;;;4.55;;
23336;SDS011;11840;45.414;12.372;2024-03-08T10:52:59;10.25;;;6.35;;
23336;SDS011;11840;45.414;12.372;2024-03-08T10:55:26;10.50;;;7.20;;
23336;SDS011;11840;45.414;12.372;2024-03-08T10:57:54;9.45;;;6.88;;
23336;SDS011;11840;45.414;12.372;2024-03-08T11:00:20;11.10;;;7.25;;
23336;SDS011;11840;45.414;12.372;2024-03-08T11:02:52;9.82;;;6.68;;
23336;SDS011;11840;45.414;12.372;2024-03-08T11:05:31;9.30;;;6.70;;
23336;SDS011;11840;45.414;12.372;2024-03-08T11:08:01;9.68;;;6.45;;
23336;SDS011;11840;45.414;12.372;2024-03-08T11:10:27;10.50;;;6.75;;
23336;SDS011;11840;45.414;12.372;2024-03-08T11:12:53;9.43;;;7.15;;
23336;SDS011;11840;45.414;12.372;2024-03-08T11:15:19;9.60;;;6.47;;
23336;SDS011;11840;45.414;12.372;2024-03-08T11:17:49;9.35;;;5.25;;
23336;SDS011;11840;45.414;12.372;2024-03-08T11:20:16;10.82;;;7.43;;
23336;SDS011;11840;45.414;12.372;2024-03-08T11:22:55;9.88;;;7.28;;
23336;SDS011;11840;45.414;12.372;2024-03-08T11:25:34;11.05;;;7.32;;
23336;SDS011;11840;45.414;12.372;2024-03-08T11:28:12;9.70;;;6.60;;
23336;SDS011;11840;45.414;12.372;2024-03-08T11:33:13;13.18;;;7.60;;
23336;SDS011;11840;45.414;12.372;2024-03-08T11:35:40;9.75;;;6.50;;
23336;SDS011;11840;45.414;12.372;2024-03-08T11:38:08;11.90;;;6.63;;
23336;SDS011;11840;45.414;12.372;2024-03-08T11:40:35;12.00;;;6.80;;
23336;SDS011;11840;45.414;12.372;2024-03-08T11:43:01;9.95;;;7.10;;
23336;SDS011;11840;45.414;12.372;2024-03-08T11:45:35;7.10;;;4.18;;
23336;SDS011;11840;45.414;12.372;2024-03-08T11:48:04;12.95;;;7.63;;
23336;SDS011;11840;45.414;12.372;2024-03-08T11:50:30;12.95;;;7.60;;
23336;SDS011;11840;45.414;12.372;2024-03-08T11:53:03;9.30;;;6.85;;
23336;SDS011;11840;45.414;12.372;2024-03-08T11:55:30;11.68;;;6.97;;
23336;SDS011;11840;45.414;12.372;2024-03-08T11:58:00;11.95;;;7.13;;
23336;SDS011;11840;45.414;12.372;2024-03-08T12:00:27;10.95;;;7.03;;
23336;SDS011;11840;45.414;12.372;2024-03-08T12:03:01;9.23;;;6.88;;
23336;SDS011;11840;45.414;12.372;2024-03-08T12:05:27;10.48;;;7.30;;
23336;SDS011;11840;45.414;12.372;2024-03-08T12:07:56;14.27;;;7.93;;
23336;SDS011;11840;45.414;12.372;2024-03-08T12:10:21;10.80;;;7.07;;
23336;SDS011;11840;45.414;12.372;2024-03-08T12:12:48;12.30;;;7.40;;
23336;SDS011;11840;45.414;12.372;2024-03-08T12:15:15;11.60;;;7.30;;
23336;SDS011;11840;45.414;12.372;2024-03-08T12:17:41;12.30;;;8.23;;
23336;SDS011;11840;45.414;12.372;2024-03-08T12:20:28;10.05;;;7.18;;
23336;SDS011;11840;45.414;12.372;2024-03-08T12:22:57;11.77;;;7.00;;
23336;SDS011;11840;45.414;12.372;2024-03-08T12:25:30;11.55;;;7.30;;
23336;SDS011;11840;45.414;12.372;2024-03-08T12:28:09;11.38;;;7.47;;
23336;SDS011;11840;45.414;12.372;2024-03-08T12:30:37;11.13;;;7.32;;
23336;SDS011;11840;45.414;12.372;2024-03-08T12:33:08;12.45;;;7.97;;
23336;SDS011;11840;45.414;12.372;2024-03-08T12:35:38;10.70;;;7.55;;
23336;SDS011;11840;45.414;12.372;2024-03-08T12:38:04;11.77;;;8.27;;
23336;SDS011;11840;45.414;12.372;2024-03-08T12:40:32;10.93;;;7.43;;
23336;SDS011;11840;45.414;12.372;2024-03-08T12:43:00;10.75;;;7.15;;
23336;SDS011;11840;45.414;12.372;2024-03-08T12:45:26;11.45;;;7.65;;
23336;SDS011;11840;45.414;12.372;2024-03-08T12:47:52;9.98;;;7.40;;
23336;SDS011;11840;45.414;12.372;2024-03-08T12:50:19;11.50;;;7.63;;
23336;SDS011;11840;45.414;12.372;2024-03-08T12:52:45;10.70;;;7.43;;
23336;SDS011;11840;45.414;12.372;2024-03-08T12:55:11;18.00;;;7.15;;
23336;SDS011;11840;45.414;12.372;2024-03-08T12:57:37;11.20;;;7.45;;
23336;SDS011;11840;45.414;12.372;2024-03-08T13:00:04;11.32;;;6.40;;
23336;SDS011;11840;45.414;12.372;2024-03-08T13:02:30;12.50;;;7.35;;
23336;SDS011;11840;45.414;12.372;2024-03-08T13:04:59;10.90;;;6.78;;
23336;SDS011;11840;45.414;12.372;2024-03-08T13:07:25;10.07;;;7.05;;
23336;SDS011;11840;45.414;12.372;2024-03-08T13:09:52;11.73;;;7.55;;
23336;SDS011;11840;45.414;12.372;2024-03-08T13:12:19;11.20;;;8.00;;
23336;SDS011;11840;45.414;12.372;2024-03-08T13:14:45;12.30;;;7.25;;
23336;SDS011;11840;45.414;12.372;2024-03-08T13:17:12;13.00;;;8.10;;
23336;SDS011;11840;45.414;12.372;2024-03-08T13:19:39;10.27;;;6.90;;
23336;SDS011;11840;45.414;12.372;2024-03-08T13:22:05;10.70;;;8.00;;
23336;SDS011;11840;45.414;12.372;2024-03-08T13:24:31;10.07;;;7.13;;
23336;SDS011;11840;45.414;12.372;2024-03-08T13:26:57;9.77;;;7.05;;
23336;SDS011;11840;45.414;12.372;2024-03-08T13:29:24;10.10;;;6.65;;
23336;SDS011;11840;45.414;12.372;2024-03-08T13:31:50;10.45;;;7.40;;
23336;SDS011;11840;45.414;12.372;2024-03-08T13:34:17;11.02;;;7.75;;
23336;SDS011;11840;45.414;12.372;2024-03-08T13:36:43;10.98;;;7.57;;
23336;SDS011;11840;45.414;12.372;2024-03-08T13:39:10;10.07;;;6.63;;
23336;SDS011;11840;45.414;12.372;2024-03-08T13:41:43;10.82;;;6.88;;
23336;SDS011;11840;45.414;12.372;2024-03-08T13:44:10;11.15;;;7.30;;
23336;SDS011;11840;45.414;12.372;2024-03-08T13:46:36;10.75;;;7.05;;
23336;SDS011;11840;45.414;12.372;2024-03-08T13:49:03;11.10;;;6.85;;
23336;SDS011;11840;45.414;12.372;2024-03-08T13:51:31;12.57;;;7.47;;
23336;SDS011;11840;45.414;12.372;2024-03-08T13:53:58;11.20;;;7.03;;
23336;SDS011;11840;45.414;12.372;2024-03-08T13:56:24;9.82;;;6.35;;
23336;SDS011;11840;45.414;12.372;2024-03-08T13:58:50;12.05;;;7.47;;
23336;SDS011;11840;45.414;12.372;2024-03-08T14:01:16;14.27;;;7.15;;
23336;SDS011;11840;45.414;12.372;2024-03-08T14:03:42;11.23;;;6.95;;
23336;SDS011;11840;45.414;12.372;2024-03-08T14:06:08;11.75;;;7.00;;
23336;SDS011;11840;45.414;12.372;2024-03-08T14:08:35;9.60;;;6.22;;
23336;SDS011;11840;45.414;12.372;2024-03-08T14:11:04;10.82;;;7.35;;
23336;SDS011;11840;45.414;12.372;2024-03-08T14:13:40;12.35;;;7.32;;
23336;SDS011;11840;45.414;12.372;2024-03-08T14:16:06;9.20;;;6.47;;
23336;SDS011;11840;45.414;12.372;2024-03-08T14:18:36;11.38;;;7.25;;
23336;SDS011;11840;45.414;12.372;2024-03-08T14:21:02;12.10;;;6.70;;
23336;SDS011;11840;45.414;12.372;2024-03-08T14:23:29;10.88;;;7.10;;
23336;SDS011;11840;45.414;12.372;2024-03-08T14:25:55;11.55;;;7.03;;
23336;SDS011;11840;45.414;12.372;2024-03-08T14:28:21;10.20;;;6.93;;
23336;SDS011;11840;45.414;12.372;2024-03-08T14:30:48;11.02;;;7.40;;
23336;SDS011;11840;45.414;12.372;2024-03-08T14:33:14;9.85;;;7.13;;
23336;SDS011;11840;45.414;12.372;2024-03-08T14:35:41;9.85;;;7.45;;
23336;SDS011;11840;45.414;12.372;2024-03-08T14:38:07;11.02;;;7.75;;
23336;SDS011;11840;45.414;12.372;2024-03-08T14:40:34;10.90;;;7.40;;
23336;SDS011;11840;45.414;12.372;2024-03-08T14:43:01;9.95;;;6.75;;
23336;SDS011;11840;45.414;12.372;2024-03-08T14:45:27;12.13;;;8.00;;
23336;SDS011;11840;45.414;12.372;2024-03-08T14:47:53;12.38;;;6.82;;
23336;SDS011;11840;45.414;12.372;2024-03-08T14:50:22;10.02;;;6.47;;
23336;SDS011;11840;45.414;12.372;2024-03-08T14:52:49;10.13;;;6.97;;
23336;SDS011;11840;45.414;12.372;2024-03-08T14:55:15;12.73;;;7.28;;
23336;SDS011;11840;45.414;12.372;2024-03-08T14:57:41;10.70;;;7.07;;
23336;SDS011;11840;45.414;12.372;2024-03-08T15:00:07;9.82;;;6.75;;
23336;SDS011;11840;45.414;12.372;2024-03-08T15:02:41;9.88;;;6.65;;
23336;SDS011;11840;45.414;12.372;2024-03-08T15:05:07;10.73;;;6.57;;
23336;SDS011;11840;45.414;12.372;2024-03-08T15:07:40;9.07;;;6.35;;
23336;SDS011;11840;45.414;12.372;2024-03-08T15:10:06;9.57;;;5.78;;
23336;SDS011;11840;45.414;12.372;2024-03-08T15:12:36;11.90;;;6.68;;
23336;SDS011;11840;45.414;12.372;2024-03-08T15:15:02;12.63;;;7.15;;
23336;SDS011;11840;45.414;12.372;2024-03-08T15:17:28;14.32;;;7.13;;
23336;SDS011;11840;45.414;12.372;2024-03-08T15:19:54;16.13;;;7.07;;
23336;SDS011;11840;45.414;12.372;2024-03-08T15:22:20;18.73;;;6.78;;
23336;SDS011;11840;45.414;12.372;2024-03-08T15:24:46;16.65;;;7.60;;
23336;SDS011;11840;45.414;12.372;2024-03-08T15:27:11;12.55;;;7.53;;
23336;SDS011;11840;45.414;12.372;2024-03-08T15:29:38;11.15;;;6.22;;
23336;SDS011;11840;45.414;12.372;2024-03-08T15:32:04;9.32;;;6.25;;
23336;SDS011;11840;45.414;12.372;2024-03-08T15:34:32;12.75;;;6.68;;
23336;SDS011;11840;45.414;12.372;2024-03-08T15:37:02;10.10;;;6.32;;
23336;SDS011;11840;45.414;12.372;2024-03-08T15:39:30;12.48;;;7.05;;
23336;SDS011;11840;45.414;12.372;2024-03-08T15:41:58;11.88;;;6.72;;
23336;SDS011;11840;45.414;12.372;2024-03-08T15:44:25;11.77;;;7.30;;
23336;SDS011;11840;45.414;12.372;2024-03-08T15:46:52;10.57;;;6.72;;
23336;SDS011;11840;45.414;12.372;2024-03-08T15:49:19;10.18;;;6.90;;
23336;SDS011;11840;45.414;12.372;2024-03-08T15:51:46;10.02;;;6.55;;
23336;SDS011;11840;45.414;12.372;2024-03-08T15:54:12;11.13;;;6.28;;
23336;SDS011;11840;45.414;12.372;2024-03-08T15:56:39;9.80;;;6.47;;
23336;SDS011;11840;45.414;12.372;2024-03-08T15:59:05;11.48;;;7.10;;
23336;SDS011;11840;45.414;12.372;2024-03-08T16:01:33;9.55;;;6.32;;
23336;SDS011;11840;45.414;12.372;2024-03-08T16:03:58;10.98;;;6.93;;
23336;SDS011;11840;45.414;12.372;2024-03-08T16:06:24;11.95;;;7.85;;
23336;SDS011;11840;45.414;12.372;2024-03-08T16:08:50;10.18;;;7.05;;
23336;SDS011;11840;45.414;12.372;2024-03-08T16:11:16;11.48;;;7.03;;
23336;SDS011;11840;45.414;12.372;2024-03-08T16:13:44;11.40;;;6.93;;
23336;SDS011;11840;45.414;12.372;2024-03-08T16:16:09;11.23;;;6.80;;
23336;SDS011;11840;45.414;12.372;2024-03-08T16:18:35;11.07;;;7.15;;
23336;SDS011;11840;45.414;12.372;2024-03-08T16:21:02;9.10;;;6.60;;
23336;SDS011;11840;45.414;12.372;2024-03-08T16:23:29;11.00;;;7.00;;
23336;SDS011;11840;45.414;12.372;2024-03-08T16:25:55;10.70;;;7.00;;
23336;SDS011;11840;45.414;12.372;2024-03-08T16:28:21;11.35;;;6.50;;
23336;SDS011;11840;45.414;12.372;2024-03-08T16:30:53;10.68;;;6.90;;
23336;SDS011;11840;45.414;12.372;2024-03-08T16:33:21;9.65;;;6.63;;
23336;SDS011;11840;45.414;12.372;2024-03-08T16:35:48;12.95;;;7.75;;
23336;SDS011;11840;45.414;12.372;2024-03-08T16:38:15;9.57;;;6.68;;
23336;SDS011;11840;45.414;12.372;2024-03-08T16:40:43;9.60;;;6.85;;
23336;SDS011;11840;45.414;12.372;2024-03-08T16:43:09;11.07;;;6.82;;
23336;SDS011;11840;45.414;12.372;2024-03-08T16:45:40;11.68;;;7.30;;
23336;SDS011;11840;45.414;12.372;2024-03-08T16:48:06;10.98;;;7.50;;
23336;SDS011;11840;45.414;12.372;2024-03-08T16:50:33;9.90;;;6.80;;
23336;SDS011;11840;45.414;12.372;2024-03-08T16:53:02;10.77;;;6.90;;
23336;SDS011;11840;45.414;12.372;2024-03-08T16:55:31;12.23;;;7.32;;
23336;SDS011;11840;45.414;12.372;2024-03-08T16:57:56;11.52;;;6.65;;
23336;SDS011;11840;45.414;12.372;2024-03-08T17:00:23;10.35;;;6.55;;
23336;SDS011;11840;45.414;12.372;2024-03-08T17:02:53;11.57;;;6.97;;
23336;SDS011;11840;45.414;12.372;2024-03-08T17:05:19;10.55;;;6.70;;
23336;SDS011;11840;45.414;12.372;2024-03-08T17:07:49;11.23;;;7.00;;
23336;SDS011;11840;45.414;12.372;2024-03-08T17:10:18;9.32;;;6.78;;
23336;SDS011;11840;45.414;12.372;2024-03-08T17:12:47;10.20;;;6.95;;
23336;SDS011;11840;45.414;12.372;2024-03-08T17:15:18;10.95;;;7.50;;
23336;SDS011;11840;45.414;12.372;2024-03-08T17:17:43;10.70;;;7.25;;
23336;SDS011;11840;45.414;12.372;2024-03-08T17:20:12;12.77;;;7.53;;
23336;SDS011;11840;45.414;12.372;2024-03-08T17:22:49;13.23;;;7.70;;
23336;SDS011;11840;45.414;12.372;2024-03-08T17:25:15;12.95;;;8.30;;
23336;SDS011;11840;45.414;12.372;2024-03-08T17:27:45;10.65;;;7.38;;
23336;SDS011;11840;45.414;12.372;2024-03-08T17:30:15;11.73;;;7.72;;
23336;SDS011;11840;45.414;12.372;2024-03-08T17:32:51;11.18;;;7.00;;
23336;SDS011;11840;45.414;12.372;2024-03-08T17:35:20;11.15;;;7.53;;
23336;SDS011;11840;45.414;12.372;2024-03-08T17:37:50;12.15;;;7.78;;
23336;SDS011;11840;45.414;12.372;2024-03-08T17:40:16;12.90;;;7.00;;
23336;SDS011;11840;45.414;12.372;2024-03-08T17:42:48;11.57;;;6.97;;
23336;SDS011;11840;45.414;12.372;2024-03-08T17:45:14;11.75;;;7.22;;
23336;SDS011;11840;45.414;12.372;2024-03-08T17:47:43;11.07;;;7.57;;
23336;SDS011;11840;45.414;12.372;2024-03-08T17:50:09;12.02;;;7.63;;
23336;SDS011;11840;45.414;12.372;2024-03-08T17:52:42;9.75;;;6.75;;
23336;SDS011;11840;45.414;12.372;2024-03-08T17:55:09;9.68;;;6.75;;
23336;SDS011;11840;45.414;12.372;2024-03-08T17:57:36;10.77;;;7.47;;
23336;SDS011;11840;45.414;12.372;2024-03-08T18:00:08;10.70;;;6.88;;
23336;SDS011;11840;45.414;12.372;2024-03-08T18:02:46;11.52;;;7.50;;
23336;SDS011;11840;45.414;12.372;2024-03-08T18:05:25;11.70;;;6.72;;
23336;SDS011;11840;45.414;12.372;2024-03-08T18:07:56;10.98;;;7.20;;
23336;SDS011;11840;45.414;12.372;2024-03-08T18:10:23;10.40;;;6.97;;
23336;SDS011;11840;45.414;12.372;2024-03-08T18:12:57;11.43;;;7.70;;
23336;SDS011;11840;45.414;12.372;2024-03-08T18:15:31;12.45;;;7.93;;
23336;SDS011;11840;45.414;12.372;2024-03-08T18:18:00;11.32;;;7.53;;
23336;SDS011;11840;45.414;12.372;2024-03-08T18:20:29;12.52;;;7.75;;
23336;SDS011;11840;45.414;12.372;2024-03-08T18:22:57;12.30;;;7.45;;
23336;SDS011;11840;45.414;12.372;2024-03-08T18:25:27;11.35;;;7.72;;
23336;SDS011;11840;45.414;12.372;2024-03-08T18:27:58;12.32;;;7.88;;
23336;SDS011;11840;45.414;12.372;2024-03-08T18:30:28;11.05;;;7.57;;
23336;SDS011;11840;45.414;12.372;2024-03-08T18:32:53;10.93;;;7.03;;
23336;SDS011;11840;45.414;12.372;2024-03-08T18:35:19;13.63;;;7.68;;
23336;SDS011;11840;45.414;12.372;2024-03-08T18:37:45;11.18;;;6.95;;
23336;SDS011;11840;45.414;12.372;2024-03-08T18:40:12;9.98;;;6.72;;
23336;SDS011;11840;45.414;12.372;2024-03-08T18:42:39;11.93;;;6.95;;
23336;SDS011;11840;45.414;12.372;2024-03-08T18:45:06;11.07;;;7.10;;
23336;SDS011;11840;45.414;12.372;2024-03-08T18:47:51;9.98;;;6.47;;
23336;SDS011;11840;45.414;12.372;2024-03-08T18:50:17;9.20;;;6.57;;
23336;SDS011;11840;45.414;12.372;2024-03-08T18:52:44;10.15;;;6.78;;
23336;SDS011;11840;45.414;12.372;2024-03-08T18:55:10;9.25;;;6.65;;
23336;SDS011;11840;45.414;12.372;2024-03-08T18:57:44;14.15;;;6.38;;
23336;SDS011;11840;45.414;12.372;2024-03-08T19:02:40;8.20;;;5.40;;
23336;SDS011;11840;45.414;12.372;2024-03-08T19:05:06;8.55;;;6.13;;
23336;SDS011;11840;45.414;12.372;2024-03-08T19:07:33;10.25;;;6.40;;
23336;SDS011;11840;45.414;12.372;2024-03-08T19:10:00;11.15;;;5.97;;
23336;SDS011;11840;45.414;12.372;2024-03-08T19:12:32;9.07;;;6.35;;
23336;SDS011;11840;45.414;12.372;2024-03-08T19:14:59;8.63;;;5.93;;
23336;SDS011;11840;45.414;12.372;2024-03-08T19:17:25;7.13;;;5.03;;
23336;SDS011;11840;45.414;12.372;2024-03-08T19:19:51;10.02;;;5.53;;
23336;SDS011;11840;45.414;12.372;2024-03-08T19:22:17;9.80;;;6.07;;
23336;SDS011;11840;45.414;12.372;2024-03-08T19:24:44;7.97;;;5.57;;
23336;SDS011;11840;45.414;12.372;2024-03-08T19:27:10;7.18;;;5.43;;
23336;SDS011;11840;45.414;12.372;2024-03-08T19:29:38;8.35;;;5.90;;
23336;SDS011;11840;45.414;12.372;2024-03-08T19:32:04;11.18;;;6.00;;
23336;SDS011;11840;45.414;12.372;2024-03-08T19:34:31;9.05;;;5.47;;
23336;SDS011;11840;45.414;12.372;2024-03-08T19:36:56;7.72;;;5.57;;
23336;SDS011;11840;45.414;12.372;2024-03-08T19:39:22;8.55;;;5.88;;
23336;SDS011;11840;45.414;12.372;2024-03-08T19:41:48;10.63;;;5.97;;
23336;SDS011;11840;45.414;12.372;2024-03-08T19:44:14;7.85;;;5.65;;
23336;SDS011;11840;45.414;12.372;2024-03-08T19:46:40;10.27;;;5.88;;
23336;SDS011;11840;45.414;12.372;2024-03-08T19:49:07;7.63;;;5.38;;
23336;SDS011;11840;45.414;12.372;2024-03-08T19:51:33;7.13;;;5.32;;
23336;SDS011;11840;45.414;12.372;2024-03-08T19:54:01;8.73;;;5.60;;
23336;SDS011;11840;45.414;12.372;2024-03-08T19:56:27;9.23;;;5.93;;
23336;SDS011;11840;45.414;12.372;2024-03-08T19:58:53;8.52;;;5.90;;
23336;SDS011;11840;45.414;12.372;2024-03-08T20:01:24;8.20;;;5.78;;
23336;SDS011;11840;45.414;12.372;2024-03-08T20:03:50;8.82;;;6.00;;
23336;SDS011;11840;45.414;12.372;2024-03-08T20:06:16;8.93;;;5.97;;
23336;SDS011;11840;45.414;12.372;2024-03-08T20:08:50;8.02;;;5.82;;
23336;SDS011;11840;45.414;12.372;2024-03-08T20:11:16;11.05;;;6.03;;
23336;SDS011;11840;45.414;12.372;2024-03-08T20:13:42;8.55;;;6.30;;
23336;SDS011;11840;45.414;12.372;2024-03-08T20:16:08;10.05;;;6.00;;
23336;SDS011;11840;45.414;12.372;2024-03-08T20:18:38;8.70;;;5.90;;
23336;SDS011;11840;45.414;12.372;2024-03-08T20:21:04;9.68;;;6.10;;
23336;SDS011;11840;45.414;12.372;2024-03-08T20:23:31;9.40;;;6.00;;
23336;SDS011;11840;45.414;12.372;2024-03-08T20:25:57;10.88;;;6.28;;
23336;SDS011;11840;45.414;12.372;2024-03-08T20:28:23;8.63;;;5.68;;
23336;SDS011;11840;45.414;12.372;2024-03-08T20:30:50;8.90;;;5.82;;
23336;SDS011;11840;45.414;12.372;2024-03-08T20:33:16;7.90;;;4.80;;
23336;SDS011;11840;45.414;12.372;2024-03-08T20:35:42;8.43;;;6.10;;
23336;SDS011;11840;45.414;12.372;2024-03-08T20:38:10;7.22;;;5.63;;
23336;SDS011;11840;45.414;12.372;2024-03-08T20:40:36;9.60;;;6.72;;
23336;SDS011;11840;45.414;12.372;2024-03-08T20:43:07;8.60;;;6.13;;
23336;SDS011;11840;45.414;12.372;2024-03-08T20:45:35;11.27;;;6.60;;
23336;SDS011;11840;45.414;12.372;2024-03-08T20:48:02;9.50;;;6.07;;
23336;SDS011;11840;45.414;12.372;2024-03-08T20:50:28;9.10;;;6.32;;
23336;SDS011;11840;45.414;12.372;2024-03-08T20:52:54;9.18;;;6.03;;
23336;SDS011;11840;45.414;12.372;2024-03-08T20:55:20;8.77;;;6.32;;
23336;SDS011;11840;45.414;12.372;2024-03-08T20:57:51;7.53;;;5.93;;
23336;SDS011;11840;45.414;12.372;2024-03-08T21:00:21;8.80;;;6.00;;
23336;SDS011;11840;45.414;12.372;2024-03-08T21:03:05;9.05;;;6.20;;
23336;SDS011;11840;45.414;12.372;2024-03-08T21:05:33;8.20;;;5.97;;
23336;SDS011;11840;45.414;12.372;2024-03-08T21:07:59;8.88;;;5.53;;
23336;SDS011;11840;45.414;12.372;2024-03-08T21:10:25;9.23;;;6.43;;
23336;SDS011;11840;45.414;12.372;2024-03-08T21:12:57;9.18;;;6.38;;
23336;SDS011;11840;45.414;12.372;2024-03-08T21:15:23;9.13;;;6.40;;
23336;SDS011;11840;45.414;12.372;2024-03-08T21:17:49;6.95;;;5.60;;
23336;SDS011;11840;45.414;12.372;2024-03-08T21:20:15;8.50;;;5.78;;
23336;SDS011;11840;45.414;12.372;2024-03-08T21:22:44;9.93;;;6.38;;
23336;SDS011;11840;45.414;12.372;2024-03-08T21:25:13;8.95;;;6.35;;
23336;SDS011;11840;45.414;12.372;2024-03-08T21:27:42;10.23;;;6.40;;
23336;SDS011;11840;45.414;12.372;2024-03-08T21:30:09;8.20;;;6.07;;
23336;SDS011;11840;45.414;12.372;2024-03-08T21:32:37;8.00;;;5.72;;
23336;SDS011;11840;45.414;12.372;2024-03-08T21:35:03;7.25;;;5.30;;
23336;SDS011;11840;45.414;12.372;2024-03-08T21:37:29;7.70;;;5.60;;
23336;SDS011;11840;45.414;12.372;2024-03-08T21:39:55;9.13;;;5.68;;
23336;SDS011;11840;45.414;12.372;2024-03-08T21:42:21;8.73;;;6.05;;
23336;SDS011;11840;45.414;12.372;2024-03-08T21:44:47;9.20;;;6.38;;
23336;SDS011;11840;45.414;12.372;2024-03-08T21:47:13;8.35;;;6.13;;
23336;SDS011;11840;45.414;12.372;2024-03-08T21:49:39;7.82;;;5.47;;
23336;SDS011;11840;45.414;12.372;2024-03-08T21:52:09;7.85;;;5.40;;
23336;SDS011;11840;45.414;12.372;2024-03-08T21:54:35;9.50;;;6.20;;
23336;SDS011;11840;45.414;12.372;2024-03-08T21:57:02;7.90;;;5.78;;
23336;SDS011;11840;45.414;12.372;2024-03-08T21:59:28;8.27;;;5.55;;
23336;SDS011;11840;45.414;12.372;2024-03-08T22:01:54;7.97;;;5.65;;
23336;SDS011;11840;45.414;12.372;2024-03-08T22:04:20;9.23;;;6.45;;
23336;SDS011;11840;45.414;12.372;2024-03-08T22:06:46;10.25;;;6.85;;
23336;SDS011;11840;45.414;12.372;2024-03-08T22:09:15;10.45;;;6.47;;
23336;SDS011;11840;45.414;12.372;2024-03-08T22:11:42;9.43;;;6.28;;
23336;SDS011;11840;45.414;12.372;2024-03-08T22:14:08;10.48;;;6.90;;
23336;SDS011;11840;45.414;12.372;2024-03-08T22:16:34;10.77;;;7.03;;